Time;durP1;ratioP1;P1;durP2;ratioP2;P2;SDS_P1;SDS_P2;PMS_P1;PMS_P2;Temp;Humidity;BMP_temperature;BMP_pressure;BME280_temperature;BME280_humidity;BME280_pressure;Samples;Min_cycle;Max_cycle;Signal;HPM_P1;HPM_P2
2022/12/31 00:01:45;;;;;;;2.70;1.73;;;;;;;-145.18;100.00;46674.06;6182193;23;20008;-73
2022/12/31 00:04:10;;;;;;;3.67;1.93;;;;;;;-145.18;100.00;46670.16;6180881;23;20013;-73
2022/12/31 00:06:36;;;;;;;3.73;1.53;;;;;;;-145.18;100.00;46685.78;6182769;23;20342;-73
2022/12/31 00:09:05;;;;;;;5.83;1.70;;;;;;;-145.18;100.00;46672.13;6182757;23;20013;-73
2022/12/31 00:11:30;;;;;;;4.90;1.30;;;;;;;-145.18;100.00;46674.06;6182575;23;20005;-73
2022/12/31 00:13:56;;;;;;;3.00;1.20;;;;;;;-145.18;100.00;46674.06;6182439;23;20015;-73
2022/12/31 00:16:37;;;;;;;4.40;1.30;;;;;;;-145.18;100.00;46670.16;6182497;23;20005;-73
2022/12/31 00:19:07;;;;;;;2.30;1.10;;;;;;;-145.18;100.00;46677.97;6182724;23;20032;-72
2022/12/31 00:21:33;;;;;;;1.77;1.20;;;;;;;-145.18;100.00;46674.06;6182614;23;20093;-73
2022/12/31 00:23:59;;;;;;;5.80;1.27;;;;;;;-145.18;100.00;46674.06;6182516;23;20005;-73
2022/12/31 00:26:27;;;;;;;4.20;1.07;;;;;;;-145.18;100.00;46676.03;6182449;23;20016;-73
2022/12/31 00:28:54;;;;;;;3.90;1.40;;;;;;;-145.18;100.00;46670.16;6182348;23;20012;-73
2022/12/31 00:31:28;;;;;;;2.20;1.33;;;;;;;-145.18;100.00;46674.06;6182433;23;20013;-73
2022/12/31 00:33:55;;;;;;;7.10;1.83;;;;;;;-145.18;100.00;46676.03;6182384;23;20005;-73
2022/12/31 00:36:31;;;;;;;3.20;1.10;;;;;;;-145.18;100.00;46677.97;6182713;23;20133;-73
2022/12/31 00:38:58;;;;;;;5.70;1.20;;;;;;;-145.18;100.00;46677.97;6182551;23;20008;-73
2022/12/31 00:41:24;;;;;;;5.33;1.73;;;;;;;-145.18;100.00;46679.94;6182068;23;20008;-73
2022/12/31 00:43:50;;;;;;;2.77;0.90;;;;;;;-145.18;100.00;46674.06;6182624;23;20005;-73
2022/12/31 00:46:16;;;;;;;6.07;1.47;;;;;;;-145.18;100.00;46677.97;6182071;23;20091;-73
2022/12/31 00:48:42;;;;;;;5.73;1.10;;;;;;;-145.18;100.00;46672.13;6182639;23;20037;-73
2022/12/31 00:51:09;;;;;;;2.73;1.00;;;;;;;-145.18;100.00;46683.84;6181744;23;20091;-73
2022/12/31 00:53:35;;;;;;;4.37;1.23;;;;;;;-145.18;100.00;46679.94;6182422;23;20338;-73
2022/12/31 00:56:03;;;;;;;5.63;1.27;;;;;;;-145.18;100.00;46677.97;6182234;23;20004;-73
2022/12/31 00:58:29;;;;;;;5.67;1.57;;;;;;;-145.18;100.00;46677.97;6182124;23;20131;-73
2022/12/31 01:00:54;;;;;;;2.97;1.20;;;;;;;-145.18;100.00;46676.03;6181918;23;20087;-73
2022/12/31 01:03:20;;;;;;;3.37;1.07;;;;;;;-145.18;100.00;46674.06;6182062;23;20069;-73
2022/12/31 01:05:45;;;;;;;3.50;0.93;;;;;;;-145.18;100.00;46679.94;6182389;23;20105;-73
2022/12/31 01:08:10;;;;;;;3.67;1.10;;;;;;;-145.18;100.00;46681.88;6181695;23;20075;-73
2022/12/31 01:13:20;;;;;;;7.20;1.40;;;;;;;-145.18;100.00;46679.94;6182309;23;20031;-73
2022/12/31 01:15:45;;;;;;;3.70;0.90;;;;;;;-145.18;100.00;46679.94;6182281;23;20486;-73
2022/12/31 01:18:11;;;;;;;4.87;1.20;;;;;;;-145.18;100.00;46677.97;6181873;23;20044;-73
2022/12/31 01:20:38;;;;;;;1.67;0.80;;;;;;;-145.18;100.00;46677.97;6181927;23;20013;-72
2022/12/31 01:23:05;;;;;;;6.57;1.10;;;;;;;-145.18;100.00;46674.06;6181913;23;20324;-72
2022/12/31 01:25:35;;;;;;;6.83;0.93;;;;;;;-145.18;100.00;46674.06;6182386;23;20005;-72
2022/12/31 01:28:00;;;;;;;7.30;1.33;;;;;;;-145.18;100.00;46677.97;6181727;23;19997;-72
2022/12/31 01:30:26;;;;;;;4.90;0.97;;;;;;;-145.18;100.00;46681.88;6181948;23;20043;-73
2022/12/31 01:32:51;;;;;;;4.40;0.80;;;;;;;-145.18;100.00;46677.97;6181766;23;20502;-73
2022/12/31 01:35:16;;;;;;;3.60;1.63;;;;;;;-145.18;100.00;46676.03;6181828;23;20001;-73
2022/12/31 01:37:42;;;;;;;5.70;0.93;;;;;;;-145.18;100.00;46681.88;6181937;23;20095;-72
2022/12/31 01:40:07;;;;;;;6.60;1.20;;;;;;;-145.18;100.00;46672.13;6181791;23;20328;-72
2022/12/31 01:42:33;;;;;;;8.77;1.40;;;;;;;-145.18;100.00;46681.88;6182039;23;20076;-72
2022/12/31 01:44:58;;;;;;;6.07;1.10;;;;;;;-145.18;100.00;46676.03;6181694;23;20379;-72
2022/12/31 01:47:49;;;;;;;3.57;0.90;;;;;;;-145.18;100.00;46676.03;6181799;23;20075;-72
2022/12/31 01:50:30;;;;;;;5.93;1.00;;;;;;;-145.18;100.00;46674.06;6181240;23;20020;-73
2022/12/31 01:53:01;;;;;;;3.10;1.00;;;;;;;-145.18;100.00;46672.13;6181460;23;20029;-72
2022/12/31 01:55:34;;;;;;;7.13;1.30;;;;;;;-145.18;100.00;46676.03;6182732;23;20009;-72
2022/12/31 01:58:09;;;;;;;3.70;1.53;;;;;;;-145.18;100.00;46674.06;6182046;23;20012;-72
2022/12/31 02:00:35;;;;;;;3.87;0.90;;;;;;;-145.18;100.00;46685.78;6181757;23;20012;-72
2022/12/31 02:03:04;;;;;;;5.73;1.00;;;;;;;-145.18;100.00;46679.94;6181574;23;20005;-72
2022/12/31 02:05:38;;;;;;;4.50;0.90;;;;;;;-145.18;100.00;46683.84;6181798;23;20064;-72
2022/12/31 02:08:05;;;;;;;6.30;1.00;;;;;;;-145.18;100.00;46676.03;6181606;23;20011;-72
2022/12/31 02:10:31;;;;;;;4.70;1.27;;;;;;;-145.18;100.00;46679.94;6182208;23;20083;-74
2022/12/31 02:12:57;;;;;;;4.77;1.13;;;;;;;-145.18;100.00;46677.97;6181360;23;20378;-72
2022/12/31 02:15:40;;;;;;;3.27;0.73;;;;;;;-145.18;100.00;46681.88;6181907;23;20009;-73
2022/12/31 02:18:05;;;;;;;4.33;0.90;;;;;;;-145.18;100.00;46683.84;6181516;23;20013;-72
2022/12/31 02:20:38;;;;;;;2.27;0.70;;;;;;;-145.18;100.00;46674.06;6181856;23;20043;-72
2022/12/31 02:23:22;;;;;;;3.23;0.87;;;;;;;-145.18;100.00;46677.97;6181764;23;20028;-72
2022/12/31 02:25:59;;;;;;;6.80;1.00;;;;;;;-145.18;100.00;46679.94;6181995;23;20059;-72
2022/12/31 02:28:49;;;;;;;5.60;1.03;;;;;;;-145.18;100.00;46681.88;6181523;23;20059;-72
2022/12/31 02:31:34;;;;;;;4.33;1.10;;;;;;;-145.18;100.00;46681.88;6181615;23;20005;-72
2022/12/31 02:34:12;;;;;;;2.15;1.10;;;;;;;-145.18;100.00;46683.84;6181900;23;20382;-73
2022/12/31 02:36:44;;;;;;;3.77;1.57;;;;;;;-145.18;100.00;46676.03;6181359;23;20083;-72
2022/12/31 02:39:11;;;;;;;5.10;1.90;;;;;;;-145.18;100.00;46677.97;6182931;23;20496;-72
2022/12/31 02:41:51;;;;;;;6.70;3.13;;;;;;;-145.18;100.00;46685.78;6183584;23;20336;-72
2022/12/31 02:44:35;;;;;;;7.80;4.60;;;;;;;-145.18;100.00;46681.88;6184044;23;20013;-72
2022/12/31 02:47:45;;;;;;;8.77;5.50;;;;;;;-145.18;100.00;46679.94;6183070;23;20430;-72
2022/12/31 02:50:36;;;;;;;6.67;4.37;;;;;;;-145.18;100.00;46683.84;6183291;23;20012;-72
2022/12/31 02:53:40;;;;;;;6.13;2.60;;;;;;;-145.18;100.00;46676.03;6183303;23;20745;-72
2022/12/31 02:56:21;;;;;;;1.93;1.07;;;;;;;-145.18;100.00;46685.78;6183199;23;20005;-73
2022/12/31 03:04:32;;;;;;;5.13;1.10;;;;;;;-145.18;100.00;46689.69;6122158;23;20668;-73
2022/12/31 03:07:05;;;;;;;3.73;0.77;;;;;;;-145.18;100.00;46683.84;6123438;23;20438;-73
2022/12/31 03:09:31;;;;;;;3.43;0.50;;;;;;;-145.18;100.00;46683.84;6123997;23;20009;-73
2022/12/31 03:14:41;;;;;;;2.80;0.50;;;;;;;-145.18;100.00;46691.66;6124216;23;20024;-73
2022/12/31 03:17:06;;;;;;;5.90;0.93;;;;;;;-145.18;100.00;46687.75;6123959;23;20014;-72
2022/12/31 03:22:27;;;;;;;1.73;0.60;;;;;;;-145.18;100.00;46681.88;6124000;23;20024;-72
2022/12/31 03:27:41;;;;;;;5.73;1.20;;;;;;;-145.18;100.00;46687.75;6123860;23;20020;-72
2022/12/31 03:30:07;;;;;;;1.63;0.77;;;;;;;-145.18;100.00;46689.69;6124312;23;20006;-73
2022/12/31 03:32:32;;;;;;;5.00;0.77;;;;;;;-145.18;100.00;46689.69;6124060;23;20348;-73
2022/12/31 03:34:58;;;;;;;3.43;0.80;;;;;;;-145.18;100.00;46685.78;6123632;23;20010;-72
2022/12/31 03:37:23;;;;;;;4.87;0.90;;;;;;;-145.18;100.00;46685.78;6123979;23;20030;-73
2022/12/31 03:39:49;;;;;;;1.23;0.60;;;;;;;-145.18;100.00;46679.94;6123889;23;20010;-73
2022/12/31 03:42:14;;;;;;;7.07;1.13;;;;;;;-145.18;100.00;46689.69;6123803;23;20021;-72
2022/12/31 03:44:39;;;;;;;2.60;1.00;;;;;;;-145.18;100.00;46679.94;6124001;23;20037;-73
2022/12/31 03:47:04;;;;;;;4.70;1.20;;;;;;;-145.18;100.00;46683.84;6123913;23;20013;-72
2022/12/31 03:49:30;;;;;;;1.83;0.90;;;;;;;-145.18;100.00;46687.75;6123825;23;20502;-72
2022/12/31 03:51:55;;;;;;;4.93;1.83;;;;;;;-145.18;100.00;46683.84;6123039;23;20584;-73
2022/12/31 03:54:20;;;;;;;2.67;1.20;;;;;;;-145.18;100.00;46681.88;6098002;23;20082;-72
2022/12/31 03:56:46;;;;;;;3.03;1.30;;;;;;;-145.18;100.00;46683.84;6123947;23;20089;-73
2022/12/31 03:59:11;;;;;;;4.67;1.60;;;;;;;-145.18;100.00;46685.78;6123888;23;20017;-73
2022/12/31 04:01:37;;;;;;;2.97;2.10;;;;;;;-145.18;100.00;46677.97;6123743;23;20173;-73
2022/12/31 04:04:02;;;;;;;4.90;2.80;;;;;;;-145.18;100.00;46681.88;6123289;23;20046;-72
2022/12/31 04:06:27;;;;;;;7.37;3.13;;;;;;;-145.18;100.00;46677.97;6124022;23;20387;-72
2022/12/31 04:08:53;;;;;;;4.80;3.60;;;;;;;-145.18;100.00;46681.88;6123472;23;20471;-72
2022/12/31 04:11:18;;;;;;;8.87;4.37;;;;;;;-145.18;100.00;46679.94;6122083;23;20072;-73
2022/12/31 04:13:43;;;;;;;5.07;3.40;;;;;;;-145.18;100.00;46685.78;6123279;23;20038;-73
2022/12/31 04:16:09;;;;;;;7.07;3.50;;;;;;;-145.18;100.00;46674.06;6123849;23;20089;-73
2022/12/31 04:18:34;;;;;;;6.17;3.70;;;;;;;-145.18;100.00;46679.94;6123420;23;20017;-72
2022/12/31 04:21:01;;;;;;;5.73;3.27;;;;;;;-145.18;100.00;46683.84;6097552;23;20273;-73
2022/12/31 04:23:26;;;;;;;8.97;5.20;;;;;;;-145.18;100.00;46679.94;6123580;23;20010;-73
2022/12/31 04:25:52;;;;;;;7.70;4.70;;;;;;;-145.18;100.00;46679.94;6121778;23;20029;-72
2022/12/31 04:28:18;;;;;;;6.20;4.67;;;;;;;-145.18;100.00;46676.03;6123406;23;20091;-73
2022/12/31 04:30:43;;;;;;;5.33;3.77;;;;;;;-145.18;100.00;46676.03;6123060;23;20045;-73
2022/12/31 04:33:09;;;;;;;6.17;4.57;;;;;;;-145.18;100.00;46677.97;6123256;23;20016;-73
2022/12/31 04:35:34;;;;;;;7.10;4.07;;;;;;;-145.18;100.00;46676.03;6123736;23;20010;-72
2022/12/31 04:37:59;;;;;;;5.10;4.07;;;;;;;-145.18;100.00;46674.06;6122881;23;20009;-72
2022/12/31 04:40:25;;;;;;;4.93;3.67;;;;;;;-145.18;100.00;46672.13;6123833;23;20324;-73
2022/12/31 04:42:50;;;;;;;6.23;3.57;;;;;;;-145.18;100.00;46676.03;6122920;23;20010;-73
2022/12/31 04:45:16;;;;;;;6.37;3.73;;;;;;;-145.18;100.00;46674.06;6123422;23;20458;-73
2022/12/31 04:47:41;;;;;;;6.87;3.37;;;;;;;-145.18;100.00;46668.22;6123239;23;20021;-73
2022/12/31 04:50:07;;;;;;;5.23;2.40;;;;;;;-145.18;100.00;46681.88;6123457;23;20093;-72
2022/12/31 04:52:32;;;;;;;4.17;2.67;;;;;;;-145.18;100.00;46672.13;6123125;23;20009;-73
2022/12/31 04:54:57;;;;;;;3.40;2.00;;;;;;;-145.18;100.00;46676.03;6123296;23;20144;-73
2022/12/31 04:57:23;;;;;;;3.63;1.90;;;;;;;-145.18;100.00;46676.03;6121190;23;20073;-73
2022/12/31 04:59:48;;;;;;;4.17;2.67;;;;;;;-145.18;100.00;46674.06;6123212;23;20013;-73
2022/12/31 05:02:13;;;;;;;4.30;2.17;;;;;;;-145.18;100.00;46679.94;6122707;23;20026;-72
2022/12/31 05:04:39;;;;;;;3.87;2.17;;;;;;;-145.18;100.00;46672.13;6123443;23;20093;-72
2022/12/31 05:07:04;;;;;;;3.47;2.27;;;;;;;-145.18;100.00;46677.97;6122649;23;20041;-72
2022/12/31 05:09:29;;;;;;;4.23;2.30;;;;;;;-145.18;100.00;46672.13;6122990;23;20010;-73
2022/12/31 05:11:55;;;;;;;4.60;2.03;;;;;;;-145.18;100.00;46676.03;6122853;23;20089;-72
2022/12/31 05:14:21;;;;;;;5.77;2.43;;;;;;;-145.18;100.00;46674.06;6122956;23;20029;-72
2022/12/31 05:16:46;;;;;;;3.60;1.97;;;;;;;-145.18;100.00;46676.03;6122815;23;20435;-72
2022/12/31 05:19:11;;;;;;;3.70;1.87;;;;;;;-145.18;100.00;46676.03;6123045;23;20017;-72
2022/12/31 05:21:37;;;;;;;3.77;1.90;;;;;;;-145.18;100.00;46670.16;6120677;23;20380;-73
2022/12/31 05:24:02;;;;;;;5.00;2.03;;;;;;;-145.18;100.00;46670.16;6122428;23;20069;-73
2022/12/31 05:26:27;;;;;;;4.20;2.03;;;;;;;-145.18;100.00;46674.06;6123107;23;20010;-73
2022/12/31 05:28:55;;;;;;;6.00;2.03;;;;;;;-145.18;100.00;46674.06;6118106;23;20398;-72
2022/12/31 05:31:21;;;;;;;4.30;2.10;;;;;;;-145.18;100.00;46672.13;6122501;23;20017;-73
2022/12/31 05:33:46;;;;;;;3.83;2.30;;;;;;;-145.18;100.00;46670.16;6122401;23;20064;-72
2022/12/31 05:36:12;;;;;;;5.70;2.70;;;;;;;-145.18;100.00;46670.16;6122804;23;20335;-72
2022/12/31 05:38:37;;;;;;;5.13;2.20;;;;;;;-145.18;100.00;46672.13;6122433;23;20409;-72
2022/12/31 05:41:05;;;;;;;4.30;2.50;;;;;;;-145.18;100.00;46676.03;6122022;23;20021;-72
2022/12/31 05:43:31;;;;;;;5.47;2.63;;;;;;;-145.18;100.00;46670.16;6122478;23;20010;-72
2022/12/31 05:46:00;;;;;;;6.73;2.87;;;;;;;-145.18;100.00;46670.16;6122330;23;20077;-72
2022/12/31 05:48:25;;;;;;;5.87;3.27;;;;;;;-145.18;100.00;46674.06;6096635;23;20018;-72
2022/12/31 05:50:51;;;;;;;4.70;2.50;;;;;;;-145.18;100.00;46670.16;6096056;23;20009;-72
2022/12/31 05:53:16;;;;;;;6.63;3.63;;;;;;;-145.18;100.00;46674.06;6122278;23;20010;-72
2022/12/31 05:55:44;;;;;;;6.10;3.40;;;;;;;-145.18;100.00;46672.13;6122067;23;20017;-72
2022/12/31 05:58:10;;;;;;;7.27;3.40;;;;;;;-145.18;100.00;46670.16;6122526;23;20449;-72
2022/12/31 06:00:35;;;;;;;6.07;3.47;;;;;;;-145.18;100.00;46672.13;6122561;23;20010;-72
2022/12/31 06:03:00;;;;;;;7.13;3.43;;;;;;;-145.18;100.00;46670.16;6121685;23;20022;-72
2022/12/31 06:05:26;;;;;;;7.67;3.10;;;;;;;-145.18;100.00;46670.16;6120934;23;20440;-72
2022/12/31 06:07:51;;;;;;;7.53;3.57;;;;;;;-145.18;100.00;46679.94;6122147;23;20109;-72
2022/12/31 06:10:16;;;;;;;7.00;3.97;;;;;;;-145.18;100.00;46672.13;6122770;23;20010;-72
2022/12/31 06:12:42;;;;;;;6.93;4.10;;;;;;;-145.18;100.00;46677.97;6122106;23;20037;-73
2022/12/31 06:15:08;;;;;;;6.87;3.63;;;;;;;-145.18;100.00;46672.13;6124597;23;20431;-72
2022/12/31 06:17:33;;;;;;;4.47;2.93;;;;;;;-145.18;100.00;46672.13;6124631;23;20474;-72
2022/12/31 06:19:58;;;;;;;3.97;2.70;;;;;;;-145.18;100.00;46674.06;6124930;23;20081;-72
2022/12/31 06:22:24;;;;;;;5.03;2.20;;;;;;;-145.18;100.00;46666.25;6124449;23;20414;-72
2022/12/31 06:24:49;;;;;;;5.03;1.90;;;;;;;-145.18;100.00;46677.97;6124499;23;20020;-73
2022/12/31 06:27:14;;;;;;;2.83;1.60;;;;;;;-145.18;100.00;46676.03;6124704;23;20009;-72
2022/12/31 06:29:40;;;;;;;2.47;1.67;;;;;;;-145.18;100.00;46674.06;6124618;23;20092;-72
2022/12/31 06:32:05;;;;;;;3.83;1.87;;;;;;;-145.18;100.00;46670.16;6123618;23;20049;-72
2022/12/31 06:34:31;;;;;;;4.73;2.73;;;;;;;-145.18;100.00;46664.31;6124719;23;20065;-72
2022/12/31 06:36:57;;;;;;;3.13;2.13;;;;;;;-145.18;100.00;46672.13;6124627;23;20016;-72
2022/12/31 06:39:23;;;;;;;3.70;2.10;;;;;;;-145.18;100.00;46674.06;6124442;23;20037;-72
2022/12/31 06:41:48;;;;;;;4.00;2.40;;;;;;;-145.18;100.00;46668.22;6124253;23;20010;-72
2022/12/31 06:44:13;;;;;;;7.13;3.37;;;;;;;-145.18;100.00;46666.25;6124497;23;20395;-72
2022/12/31 06:46:39;;;;;;;6.07;3.30;;;;;;;-145.18;100.00;46666.25;6124712;23;20065;-72
2022/12/31 06:49:04;;;;;;;5.07;3.70;;;;;;;-145.18;100.00;46666.25;6123934;23;20022;-72
2022/12/31 06:51:30;;;;;;;3.33;2.73;;;;;;;-145.18;100.00;46666.25;6124609;23;20042;-72
2022/12/31 06:53:55;;;;;;;3.33;3.00;;;;;;;-145.18;100.00;46666.25;6123949;23;20354;-72
2022/12/31 06:56:24;;;;;;;5.20;2.80;;;;;;;-145.18;100.00;46668.22;6124758;23;20056;-72
2022/12/31 06:58:50;;;;;;;2.70;2.10;;;;;;;-145.18;100.00;46662.34;6123865;23;20002;-72
2022/12/31 07:01:34;;;;;;;3.43;2.67;;;;;;;-145.18;100.00;46670.16;6123910;23;20089;-72
2022/12/31 07:04:16;;;;;;;4.57;3.43;;;;;;;-145.18;100.00;46666.25;6122113;23;20085;-72
2022/12/31 07:07:07;;;;;;;4.10;3.43;;;;;;;-145.18;100.00;46670.16;6123882;23;20093;-73
2022/12/31 07:09:44;;;;;;;5.13;3.73;;;;;;;-145.18;100.00;46666.25;6123500;23;20005;-72
2022/12/31 07:12:28;;;;;;;7.20;4.57;;;;;;;-145.18;100.00;46660.41;6123516;23;20006;-72
2022/12/31 07:14:58;;;;;;;4.83;3.30;;;;;;;-145.18;100.00;46664.31;6124057;23;20006;-73
2022/12/31 07:17:41;;;;;;;6.17;3.50;;;;;;;-145.18;100.00;46670.16;6123558;23;20077;-73
2022/12/31 07:20:13;;;;;;;5.57;2.23;;;;;;;-145.18;100.00;46668.22;6124306;23;20002;-73
2022/12/31 07:22:39;;;;;;;5.17;2.10;;;;;;;-145.18;100.00;46664.31;6123349;23;20006;-72
2022/12/31 07:25:05;;;;;;;4.40;2.40;;;;;;;-145.18;100.00;46664.31;6122869;23;20016;-72
2022/12/31 07:28:03;;;;;;;5.80;1.53;;;;;;;-145.18;100.00;46664.31;6124304;23;20009;-72
2022/12/31 07:30:43;;;;;;;4.30;1.00;;;;;;;-145.18;100.00;46664.31;6093359;23;20312;-72
2022/12/31 07:33:18;;;;;;;9.03;1.00;;;;;;;-145.18;100.00;46666.25;6123473;23;20454;-72
2022/12/31 07:36:16;;;;;;;7.10;2.35;;;;;;;-145.18;100.00;46670.16;6123995;23;20460;-73
2022/12/31 07:39:27;;;;;;;4.70;1.50;;;;;;;-145.18;100.00;46666.25;6123546;23;20006;-72
2022/12/31 07:42:08;;;;;;;5.87;1.17;;;;;;;-145.18;100.00;46664.31;6113437;23;20020;-72
2022/12/31 07:44:44;;;;;;;1.40;0.87;;;;;;;-145.18;100.00;46668.22;6123815;23;20080;-72
2022/12/31 07:47:19;;;;;;;7.27;1.00;;;;;;;-145.18;100.00;46670.16;6123881;23;20002;-72
2022/12/31 07:49:45;;;;;;;4.15;0.80;;;;;;;-145.18;100.00;46666.25;6123408;23;20368;-72
2022/12/31 07:52:10;;;;;;;5.50;0.90;;;;;;;-145.18;100.00;46672.13;6123428;23;20042;-72
2022/12/31 07:54:35;;;;;;;3.17;0.80;;;;;;;-145.18;100.00;46672.13;6123328;23;20010;-72
2022/12/31 07:57:01;;;;;;;2.60;1.03;;;;;;;-145.18;100.00;46672.13;6123183;23;20089;-72
2022/12/31 07:59:47;;;;;;;2.50;0.73;;;;;;;-145.18;100.00;46670.16;6123438;23;20010;-72
2022/12/31 08:02:43;;;;;;;3.72;0.63;;;;;;;-145.18;100.00;46676.03;6123206;23;20002;-72
2022/12/31 08:05:32;;;;;;;2.97;0.70;;;;;;;-145.18;100.00;46677.97;6123087;23;20093;-72
2022/12/31 08:08:16;;;;;;;2.10;0.50;;;;;;;-145.18;100.00;46670.16;6123029;23;20006;-72
2022/12/31 08:10:58;;;;;;;4.60;0.93;;;;;;;-145.18;100.00;46672.13;6123359;23;20334;-72
2022/12/31 08:13:24;;;;;;;2.97;0.80;;;;;;;-145.18;100.00;46674.06;6123017;23;20018;-72
2022/12/31 08:15:50;;;;;;;4.33;0.57;;;;;;;-145.18;100.00;46672.13;6123208;23;20006;-72
2022/12/31 08:18:15;;;;;;;4.93;0.80;;;;;;;-145.18;100.00;46679.94;6123051;23;20018;-72
2022/12/31 08:21:25;;;;;;;2.00;0.57;;;;;;;-145.18;100.00;46676.03;6121938;23;20014;-72
2022/12/31 08:24:00;;;;;;;2.60;0.50;;;;;;;-145.18;100.00;46670.16;6122689;23;20009;-72
2022/12/31 08:26:53;;;;;;;5.47;0.70;;;;;;;-145.18;100.00;46677.97;6118438;23;20412;-72
2022/12/31 08:29:58;;;;;;;2.70;0.60;;;;;;;-145.18;100.00;46681.88;6121395;23;20005;-71
2022/12/31 08:32:34;;;;;;;4.90;0.80;;;;;;;-145.18;100.00;46677.97;6122544;23;20428;-72
2022/12/31 08:35:15;;;;;;;4.73;0.60;;;;;;;-145.18;100.00;46685.78;6122672;23;20010;-72
2022/12/31 08:37:46;;;;;;;1.30;0.73;;;;;;;-145.18;100.00;46676.03;6122518;23;20503;-72
2022/12/31 08:40:24;;;;;;;2.83;1.10;;;;;;;-145.18;100.00;46676.03;6122930;23;20009;-72
2022/12/31 08:42:58;;;;;;;5.37;1.27;;;;;;;-145.18;100.00;46681.88;6121604;23;20010;-72
2022/12/31 08:45:37;;;;;;;2.93;0.90;;;;;;;-145.18;100.00;46676.03;6122832;23;20006;-72
2022/12/31 08:48:18;;;;;;;4.80;1.40;;;;;;;-145.18;100.00;46681.88;6120412;23;20016;-71
2022/12/31 08:50:43;;;;;;;3.83;1.00;;;;;;;-145.18;100.00;46676.03;6121321;23;20006;-72
2022/12/31 08:53:09;;;;;;;6.40;0.93;;;;;;;-145.18;100.00;46677.97;6122147;23;20021;-71
2022/12/31 08:55:35;;;;;;;3.53;1.20;;;;;;;-145.18;100.00;46672.13;6123166;23;20407;-71
2022/12/31 08:58:18;;;;;;;4.90;0.90;;;;;;;-145.18;100.00;46679.94;6121149;23;20075;-71
2022/12/31 09:00:45;;;;;;;5.70;1.00;;;;;;;-145.18;100.00;46674.06;6120941;23;20004;-71
2022/12/31 09:03:28;;;;;;;5.23;1.20;;;;;;;-145.18;100.00;46685.78;6121707;23;20351;-71
2022/12/31 09:06:05;;;;;;;4.30;1.03;;;;;;;-145.18;100.00;46685.78;6122637;23;20100;-72
2022/12/31 09:09:09;;;;;;;9.13;1.30;;;;;;;-145.18;100.00;46683.84;6121725;23;20081;-71
2022/12/31 09:11:55;;;;;;;6.37;1.50;;;;;;;-145.18;100.00;46683.84;6088525;23;20080;-71
2022/12/31 09:14:31;;;;;;;;;;;;;;;-145.18;100.00;46685.78;6122230;23;20016;-71
2022/12/31 09:17:23;;;;;;;2.42;0.90;;;;;;;-145.18;100.00;46695.56;6122627;23;20346;-71
2022/12/31 09:19:49;;;;;;;5.10;0.83;;;;;;;-145.18;100.00;46687.75;6122596;23;20356;-71
2022/12/31 09:22:15;;;;;;;5.87;1.00;;;;;;;-145.18;100.00;46693.59;6122886;23;20002;-71
2022/12/31 09:24:40;;;;;;;8.00;1.60;;;;;;;-145.18;100.00;46699.47;6123099;23;20013;-71
2022/12/31 09:27:38;;;;;;;3.73;1.20;;;;;;;-145.18;100.00;46711.19;6122640;23;20080;-71
2022/12/31 09:30:07;;;;;;;7.83;2.53;;;;;;;-145.18;100.00;46693.59;6122155;23;20166;-71
2022/12/31 09:32:59;;;;;;;4.93;1.90;;;;;;;-145.18;100.00;46717.03;6122728;23;20130;-71
2022/12/31 09:35:47;;;;;;;4.47;1.17;;;;;;;-145.18;100.00;46713.13;6122983;23;20439;-71
2022/12/31 09:38:36;;;;;;;3.33;1.13;;;;;;;-145.18;100.00;46719.00;6122993;23;20006;-71
2022/12/31 09:41:23;;;;;;;3.20;0.90;;;;;;;-145.18;100.00;46709.22;6122820;23;20081;-71
2022/12/31 09:43:57;;;;;;;4.07;1.10;;;;;;;-145.18;100.00;46711.19;6122748;23;20006;-71
2022/12/31 09:46:51;;;;;;;3.35;1.52;;;;;;;-145.18;100.00;46711.19;6097157;23;20089;-71
2022/12/31 09:49:46;;;;;;;3.87;1.67;;;;;;;-145.18;100.00;46715.09;6122272;23;20013;-71
2022/12/31 09:52:31;;;;;;;4.87;1.90;;;;;;;-145.18;100.00;46715.09;6123169;23;20081;-71
2022/12/31 09:55:15;;;;;;;10.03;3.97;;;;;;;-145.18;100.00;46717.03;6122383;23;20010;-71
2022/12/31 09:58:17;;;;;;;4.80;2.63;;;;;;;-145.18;100.00;46713.13;6122867;23;20084;-71
2022/12/31 10:00:50;;;;;;;8.40;3.40;;;;;;;-145.18;100.00;46717.03;6123130;23;20025;-71
2022/12/31 10:03:24;;;;;;;9.83;4.93;;;;;;;-145.18;100.00;46715.09;6122431;23;20022;-72
2022/12/31 10:06:23;;;;;;;12.43;8.30;;;;;;;-145.18;100.00;46717.03;6115904;23;20100;-71
2022/12/31 10:08:55;;;;;;;19.03;10.27;;;;;;;-145.18;100.00;46717.03;6121511;23;20005;-71
2022/12/31 10:11:29;;;;;;;60.97;38.57;;;;;;;-145.18;100.00;46717.03;6119270;23;20006;-72
2022/12/31 10:14:17;;;;;;;19.63;11.57;;;;;;;-145.18;100.00;46719.00;6120206;23;20100;-71
2022/12/31 10:17:17;;;;;;;9.53;4.70;;;;;;;-145.18;100.00;46717.03;6120847;23;20014;-72
2022/12/31 10:20:04;;;;;;;6.73;1.93;;;;;;;-145.18;100.00;46720.94;6121613;23;20017;-72
2022/12/31 10:22:41;;;;;;;9.57;3.30;;;;;;;-145.18;100.00;46717.03;6122721;23;20005;-72
2022/12/31 10:25:56;;;;;;;7.20;3.53;;;;;;;-145.18;100.00;46719.00;6122114;23;20002;-72
2022/12/31 10:28:47;;;;;;;5.33;2.63;;;;;;;-145.18;100.00;46715.09;6122128;23;20438;-72
2022/12/31 10:31:37;;;;;;;9.47;4.50;;;;;;;-145.18;100.00;46720.94;6096339;23;20021;-72
2022/12/31 10:34:15;;;;;;;7.17;3.00;;;;;;;-145.18;100.00;46717.03;6121671;23;20006;-72
2022/12/31 10:36:59;;;;;;;7.63;4.60;;;;;;;-145.18;100.00;46717.03;6115194;23;20009;-71
2022/12/31 10:39:42;;;;;;;9.40;4.57;;;;;;;-145.18;100.00;46719.00;6120960;23;20010;-72
2022/12/31 10:42:26;;;;;;;7.00;1.97;;;;;;;-145.18;100.00;46717.03;6121959;23;20014;-72
2022/12/31 10:45:13;;;;;;;6.67;2.70;;;;;;;-145.18;100.00;46719.00;6119523;23;20040;-72
2022/12/31 10:48:08;;;;;;;10.30;3.40;;;;;;;-145.18;100.00;46709.22;6120634;23;20033;-72
2022/12/31 10:50:45;;;;;;;13.53;7.77;;;;;;;-145.18;100.00;46713.13;6121710;23;20360;-72
2022/12/31 10:53:25;;;;;;;11.17;5.87;;;;;;;-145.18;100.00;46720.94;6121861;23;20018;-72
2022/12/31 10:56:11;;;;;;;10.23;6.83;;;;;;;-145.18;100.00;46711.19;6121501;23;20442;-72
2022/12/31 10:59:02;;;;;;;3.70;1.70;;;;;;;-145.18;100.00;46713.13;6121873;23;20020;-72
2022/12/31 11:01:27;;;;;;;2.77;1.20;;;;;;;-145.18;100.00;46707.28;6123614;23;20041;-72
2022/12/31 11:04:19;;;;;;;18.77;11.30;;;;;;;-145.18;100.00;46709.22;6122768;23;20355;-72
2022/12/31 11:07:20;;;;;;;7.77;2.07;;;;;;;-145.18;100.00;46713.13;6123205;23;20010;-72
2022/12/31 11:10:26;;;;;;;5.03;2.10;;;;;;;-145.18;100.00;46713.13;6088696;23;20013;-72
2022/12/31 11:13:28;;;;;;;14.10;8.80;;;;;;;-145.18;100.00;46722.91;6033817;23;20128;-72
2022/12/31 11:16:02;;;;;;;6.67;1.90;;;;;;;-145.18;100.00;46719.00;6123610;23;20006;-71
2022/12/31 11:18:46;;;;;;;10.43;6.37;;;;;;;-145.18;100.00;46722.91;6123769;23;20458;-72
2022/12/31 11:21:14;;;;;;;13.53;8.83;;;;;;;-145.18;100.00;46726.81;6122488;23;20092;-72
2022/12/31 11:23:51;;;;;;;8.83;4.93;;;;;;;-145.18;100.00;46724.84;6122902;23;20336;-72
2022/12/31 11:26:35;;;;;;;9.27;2.63;;;;;;;-145.18;100.00;46722.91;6123446;23;20010;-72
2022/12/31 11:29:37;;;;;;;7.30;3.13;;;;;;;-145.18;100.00;46724.84;6123073;23;20029;-72
2022/12/31 11:32:11;;;;;;;6.10;2.17;;;;;;;-145.18;100.00;46724.84;6122889;23;20062;-71
2022/12/31 11:34:37;;;;;;;5.40;2.50;;;;;;;-145.18;100.00;46720.94;6122340;23;20403;-71
2022/12/31 11:37:23;;;;;;;10.00;3.73;;;;;;;-145.18;100.00;46720.94;6123476;23;20002;-71
2022/12/31 11:40:19;;;;;;;6.87;2.30;;;;;;;-145.18;100.00;46713.13;6123559;23;20104;-71
2022/12/31 11:42:55;;;;;;;8.05;3.45;;;;;;;-145.18;100.00;46713.13;6123608;23;20006;-71
2022/12/31 11:46:01;;;;;;;6.93;2.25;;;;;;;-145.18;100.00;46719.00;6123906;23;20053;-71
2022/12/31 11:48:26;;;;;;;11.33;4.73;;;;;;;-145.18;100.00;46717.03;6123690;23;20009;-71
2022/12/31 11:51:19;;;;;;;24.03;13.97;;;;;;;-145.18;100.00;46717.03;6123329;23;20006;-72
2022/12/31 11:54:13;;;;;;;17.93;12.80;;;;;;;-145.18;100.00;46720.94;6123523;23;20014;-71
2022/12/31 11:56:49;;;;;;;20.70;14.13;;;;;;;-145.18;100.00;46720.94;6123855;23;20010;-71